createdAt,value
2022-09-14T00:10:55.434Z,20.7
2022-09-14T00:25:25.563Z,20.8
2022-09-14T00:39:55.342Z,20.4
2022-09-14T00:54:23.617Z,20.6
2022-09-14T01:08:52.523Z,20.6
2022-09-14T01:23:22.455Z,20.3
2022-09-14T01:37:53.438Z,20.6
2022-09-14T01:52:22.650Z,20.6
2022-09-14T02:06:52.684Z,20.2
2022-09-14T02:21:21.830Z,20.5
2022-09-14T02:35:52.293Z,20.2
2022-09-14T02:50:19.280Z,20.2
2022-09-14T03:04:51.717Z,20.4
2022-09-14T03:19:21.173Z,20.1
2022-09-14T03:33:49.969Z,20.2
2022-09-14T03:48:17.996Z,20.2
2022-09-14T04:02:48.139Z,20.1
2022-09-14T04:17:16.991Z,19.9
2022-09-14T04:31:47.815Z,20
2022-09-14T04:46:17.136Z,20
2022-09-14T05:00:46.595Z,20.2
2022-09-14T05:15:16.740Z,20.1
2022-09-14T05:29:44.467Z,20
2022-09-14T05:44:14.235Z,19.9
2022-09-14T05:58:42.917Z,20
2022-09-14T06:13:14.513Z,19.8
2022-09-14T06:27:43.538Z,20
2022-09-14T06:42:12.707Z,20.1
2022-09-14T06:56:43.254Z,19.9
2022-09-14T07:11:12.733Z,19.9
2022-09-14T07:25:42.895Z,19.7
2022-09-14T07:40:12.256Z,19.8
2022-09-14T07:54:42.090Z,19.9
2022-09-14T08:09:12.269Z,20
2022-09-14T08:23:42.819Z,20.1
2022-09-14T08:38:11.901Z,20
2022-09-14T08:52:42.535Z,20.3
2022-09-14T09:07:11.350Z,20.1
2022-09-14T09:21:42.147Z,20.2
2022-09-14T09:36:10.940Z,20
2022-09-14T09:50:41.567Z,20
2022-09-14T10:05:09.933Z,19.6
2022-09-14T10:19:39.092Z,19.6
2022-09-14T10:34:15.506Z,19.7
2022-09-14T10:48:42.229Z,19.4
2022-09-14T11:03:12.060Z,19.5
2022-09-14T11:17:41.425Z,19.6
2022-09-14T11:32:22.921Z,19.3
2022-09-14T11:46:45.508Z,19.4
2022-09-14T12:01:14.510Z,19.3
2022-09-14T12:15:45.891Z,19.2
2022-09-14T12:30:14.833Z,19.8
2022-09-14T12:44:45.666Z,19.9
2022-09-14T12:59:15.316Z,20.2
2022-09-14T13:13:46.622Z,20.2
2022-09-14T13:28:15.992Z,20.1
2022-09-14T13:42:46.650Z,20
2022-09-14T13:57:16.854Z,20
2022-09-14T14:11:49.339Z,19.8
2022-09-14T14:26:18.668Z,19.9
2022-09-14T14:40:47.452Z,19.7
2022-09-14T14:55:16.963Z,19.9
2022-09-14T15:09:46.903Z,19.8
2022-09-14T15:24:16.947Z,19.6
2022-09-14T15:38:46.889Z,19.7
2022-09-14T15:53:14.785Z,19.4
2022-09-14T16:07:45.013Z,19.4
2022-09-14T16:22:14.776Z,19.4
2022-09-14T16:36:45.390Z,19.5
2022-09-14T16:51:15.084Z,19.1
2022-09-14T17:05:42.858Z,19
2022-09-14T17:20:11.734Z,18.5
2022-09-14T17:34:40.942Z,18.7
2022-09-14T17:49:07.684Z,18.3
2022-09-14T18:03:38.803Z,18.3
2022-09-14T18:18:08.779Z,18.2
2022-09-14T18:32:39.455Z,18.1
2022-09-14T18:47:08.173Z,18.3
2022-09-14T19:01:39.332Z,18.2
2022-09-14T19:16:08.696Z,18.3
2022-09-14T19:30:38.340Z,18.2
2022-09-14T19:45:08.229Z,18.3
2022-09-14T19:59:38.698Z,17.6
2022-09-14T20:14:10.087Z,18
2022-09-14T20:28:38.332Z,17.7
2022-09-14T20:43:08.086Z,17.8
2022-09-14T20:57:37.850Z,17.7
2022-09-14T21:12:07.076Z,17.6
2022-09-14T21:26:43.495Z,17.4
2022-09-14T21:41:09.633Z,17.1
2022-09-14T21:55:39.334Z,17
2022-09-14T22:10:08.008Z,16.9
2022-09-14T22:24:39.020Z,16.8
2022-09-14T22:39:07.708Z,16.6
2022-09-14T22:53:37.599Z,16.8
2022-09-14T23:08:06.676Z,16.5
2022-09-14T23:22:37.866Z,16.5
2022-09-14T23:37:07.511Z,16.6
2022-09-14T23:51:36.740Z,16.6
